Bruno, Canada
Current Conditions -  °F | °C
As of 9:00 AM on Tuesday 21 Oct 2014 (Local Time) from CYXE Reporting Station
Scattered Clouds Scattered Clouds  
Wind Chill: 42°   Ceiling: Unl
Heat Index: 46°   Visibility: 15mi
Dew Point: 39°   Wind: 9mph
Humidity: 76%   Direction: 190°S
Pressure: 29.61"   Gusts: NA
Location:  52.27°N, 105.52°W
Report Text: CYXE 211500Z 19008KT 15SM SCT230 08/04 A2961 RMK CI3 SLP037
Loading
Personal Weather Stations






























Interactive Weather Map
Tropical Storm Tracking
New forecast layout! Learn more

10-Day Weather Forecast

Advertisements
Track Severe Weather on mobile